Nearby METAR Reports

 

YCOM - Cooma Airport, NSW, AU
Distance from station: NE 158km
Updated: 18/06/2018 19:00
Mostly cloudy
Mostly cloudy
 Wind from SW
Wind: SW 28 km/h
Temperature: 3°C
Wind Chill: -3°C
Dew Point: 2°C
Humidity: 93%
Barometer: 1021 hPa
Clouds: Mostly cloudy
Visibility: 10 km
Cloud details: Partly cloudy 701 m
Mostly cloudy 1372 m
2018/06/18 09:00 YCOM 180900Z AUTO 23015KT 9999 // SCT023 BKN045 03/02 Q1021
YMAY - Albury Airport, NSW, AU
Distance from station: NNW 165km
Updated: 18/06/2018 19:00
Clear
Clear
 Wind from SSE
Wind: SSE 7 km/h
Temperature: 8°C
Wind Chill: 7°C
Dew Point: 4°C
Humidity: 76%
Barometer: 1023 hPa
Clouds: Clear
Visibility: 10 km
2018/06/18 09:00 YMAY 180900Z AUTO 16004KT 9999 // NCD 08/04 Q1023
 
YWGT - Wangaratta Airport, Victoria, AU
Distance from station: NW 172km
Updated: 18/06/2018 19:00
Clear
Clear
 Wind from S
Wind: S 19 km/h
Temperature: 9°C
Wind Chill: 6°C
Dew Point: 4°C
Humidity: 71%
Barometer: 1024 hPa
Clouds: Clear
Visibility: 10 km
2018/06/18 09:00 YWGT 180900Z AUTO 19010KT 9999 // NCD 09/04 Q1024
YMER - Merimbula Airport, NSW, AU
Distance from station: ENE 192km
Updated: 18/06/2018 19:34
Mostly cloudy
Mostly cloudy
 Wind from WSW
Wind: WSW 15 km/h
Temperature: 9°C
Wind Chill: 7°C
Dew Point: 7°C
Humidity: 87%
Barometer: 1022 hPa
Clouds: Mostly cloudy
Visibility: 5 km
Cloud details: Partly cloudy 518 m
Partly cloudy 1006 m
Mostly cloudy 1311 m
2018/06/18 09:34 YMER 180934Z AUTO 24008KT 5000 // SCT017 SCT033 BKN043 09/07 Q1022
 
YSWG - Wagga Wagga Airport, NSW, AU
Distance from station: N 251km
Updated: 18/06/2018 19:00
Clear
Clear
 Wind from SW
Wind: SW 13 km/h
Temperature: 8°C
Wind Chill: 6°C
Dew Point: 5°C
Humidity: 82%
Barometer: 1022 hPa
Clouds: Clear
Visibility: 10 km
2018/06/18 09:00 YSWG 180900Z AUTO 23007KT 9999 // NCD 08/05 Q1022
YMEN - Essendon Airport, Victoria, AU
Distance from station: W 259km
Updated: 18/06/2018 19:00
Clear
Clear
 Wind from SW
Wind: SW 9 km/h
Temperature: 7°C
Wind Chill: 6°C
Dew Point: 7°C
Humidity: 100%
Barometer: 1027 hPa
Clouds: Clear
Visibility: 10 km
2018/06/18 09:00 YMEN 180900Z AUTO 23005KT 9999 // NCD 07/07 Q1027
 
YSCB - Canberra Airport, ACT, AU
Distance from station: NNE 263km
Updated: 18/06/2018 19:00
Light rain, Showers, Partly cloudy
Light rain, Showers, Partly cloudy
 Wind from S
Wind: S 17 km/h
Temperature: 8°C
Wind Chill: 5°C
Dew Point: 3°C
Humidity: 71%
Barometer: 1022 hPa
Summary: Light rain, Showers
Clouds: Partly cloudy
Visibility: 10 km
Cloud details: Partly cloudy 975 m
Partly cloudy 1829 m
2018/06/18 09:00 YSCB 180900Z 17009KT 9999 -SHRA SCT032 SCT060 08/03 Q1022 FM0900 MOD TURB BLW 5000FT
YMML - Melbourne Airport, Victoria, AU
Distance from station: W 266km
Updated: 18/06/2018 19:00
Few Clouds
Few Clouds
 Wind from SSW
Wind: SSW 7 km/h
Temperature: 8°C
Wind Chill: 7°C
Dew Point: 5°C
Humidity: 82%
Barometer: 1027 hPa
Clouds: Few Clouds
Visibility: 10 km
Cloud details: Few Clouds 884 m
2018/06/18 09:00 YMML 180900Z 21004KT 9999 FEW029 08/05 Q1027